Terminal Aerodrome Forecast
Issued by NWS Quad Cities IA IL

Home | Current Version | Previous Version | Text Only | Print | Product List | Glossary On
Versions: 1 2 3 4 5 6 7 8 9 10 11 12 13 14 15 16 17 18 19 20 21 22
000
FTUS43 KDVN 190752 AAA
TAFMLI
TAF AMD
KMLI 190752Z 1908/2006 02003KT P6SM -SHRA VCTS BKN070CB
     FM190830 VRB05KT P6SM SCT070
     FM190900 07003KT 5SM BR FEW250
     FM191500 VRB05KT P6SM SCT050=

USA.gov is the U.S. government's official web portal to all federal, state and local government web resources and services.